KOBE/OBE METAR and TAF weather

Enter ICAO airport designator
Station Type Date Time Source
KOBE METAR 2020/12/06 01:35 UTC NOAA

KOBE 060135Z AUTO 00000KT 10SM SCT055 18/16 A3004 RMK AO2


Station Type Date Time Source
KOBE Decoded METAR 2020/12/06 01:35 UTC NOAA

Okeechobee County Airport, FL, United States (KOBE) 27-15-60N 080-51-02W
Dec 05, 2020 - 08:35 PM EST / 2020.12.06 0135 UTC
Wind: Calm:0
Visibility: 10 mile(s):0
Sky conditions: partly cloudy
Temperature: 64 F (18 C)
Dew Point: 60 F (16 C)
Relative Humidity: 88%
Pressure (altimeter): 30.04 in. Hg (1017 hPa)
ob: KOBE 060135Z AUTO 00000KT 10SM SCT055 18/16 A3004 RMK AO2
cycle: 1

Station Type Date Time Source
KOBE TAF UTC NOAA

Error!

Example: see airport list